sensor_id;sensor_type;location;lat;lon;timestamp;pressure;altitude;pressure_sealevel;temperature;humidity
43480;BME280;29067;35.492;-97.520;2022-08-01T00:02:03;97171.91;;;31.39;37.70
43480;BME280;29067;35.492;-97.520;2022-08-01T00:04:32;97173.63;;;29.73;39.06
43480;BME280;29067;35.492;-97.520;2022-08-01T00:07:00;97171.48;;;30.42;39.36
43480;BME280;29067;35.492;-97.520;2022-08-01T00:09:28;97173.01;;;30.08;39.31
43480;BME280;29067;35.492;-97.520;2022-08-01T00:11:56;97169.80;;;29.10;39.82
43480;BME280;29067;35.492;-97.520;2022-08-01T00:14:24;97165.65;;;28.63;40.45
43480;BME280;29067;35.492;-97.520;2022-08-01T00:16:53;97166.23;;;29.74;39.58
43480;BME280;29067;35.492;-97.520;2022-08-01T00:19:21;97166.25;;;29.96;38.88
43480;BME280;29067;35.492;-97.520;2022-08-01T00:21:48;97167.72;;;30.38;39.42
43480;BME280;29067;35.492;-97.520;2022-08-01T00:24:16;97166.18;;;30.31;39.25
43480;BME280;29067;35.492;-97.520;2022-08-01T00:28:58;97172.23;;;31.37;38.84
43480;BME280;29067;35.492;-97.520;2022-08-01T00:31:27;97170.56;;;30.79;38.42
43480;BME280;29067;35.492;-97.520;2022-08-01T00:33:54;97171.79;;;29.82;39.27
43480;BME280;29067;35.492;-97.520;2022-08-01T00:36:21;97170.27;;;29.69;40.81
43480;BME280;29067;35.492;-97.520;2022-08-01T00:38:49;97167.52;;;30.40;40.13
43480;BME280;29067;35.492;-97.520;2022-08-01T00:41:17;97163.29;;;30.23;39.71
43480;BME280;29067;35.492;-97.520;2022-08-01T00:43:45;97158.71;;;29.89;40.82
43480;BME280;29067;35.492;-97.520;2022-08-01T00:46:13;97156.99;;;30.45;40.51
43480;BME280;29067;35.492;-97.520;2022-08-01T00:48:42;97154.57;;;30.36;40.46
43480;BME280;29067;35.492;-97.520;2022-08-01T00:51:10;97151.64;;;28.34;42.70
43480;BME280;29067;35.492;-97.520;2022-08-01T00:53:39;97151.99;;;28.90;43.16
43480;BME280;29067;35.492;-97.520;2022-08-01T00:56:08;97156.07;;;29.70;41.58
43480;BME280;29067;35.492;-97.520;2022-08-01T00:58:36;97153.64;;;28.70;42.27
43480;BME280;29067;35.492;-97.520;2022-08-01T01:01:04;97148.26;;;29.81;41.74
43480;BME280;29067;35.492;-97.520;2022-08-01T01:03:32;97148.12;;;28.47;42.64
43480;BME280;29067;35.492;-97.520;2022-08-01T01:06:11;97146.46;;;28.80;42.25
43480;BME280;29067;35.492;-97.520;2022-08-01T01:08:46;97150.12;;;28.10;42.96
43480;BME280;29067;35.492;-97.520;2022-08-01T01:11:25;97151.90;;;28.65;42.44
43480;BME280;29067;35.492;-97.520;2022-08-01T01:13:59;97151.60;;;27.28;44.84
43480;BME280;29067;35.492;-97.520;2022-08-01T01:16:30;97154.65;;;27.70;44.19
43480;BME280;29067;35.492;-97.520;2022-08-01T01:19:01;97161.11;;;27.85;44.42
43480;BME280;29067;35.492;-97.520;2022-08-01T01:21:39;97156.68;;;29.26;42.32
43480;BME280;29067;35.492;-97.520;2022-08-01T01:24:20;97159.02;;;29.58;41.83
43480;BME280;29067;35.492;-97.520;2022-08-01T01:27:00;97160.47;;;28.42;42.91
43480;BME280;29067;35.492;-97.520;2022-08-01T01:29:33;97162.36;;;28.67;42.76
43480;BME280;29067;35.492;-97.520;2022-08-01T01:32:06;97161.08;;;28.43;42.99
43480;BME280;29067;35.492;-97.520;2022-08-01T01:34:37;97163.43;;;27.50;44.21
43480;BME280;29067;35.492;-97.520;2022-08-01T01:37:08;97162.33;;;29.64;42.77
43480;BME280;29067;35.492;-97.520;2022-08-01T01:39:39;97159.59;;;28.95;42.63
43480;BME280;29067;35.492;-97.520;2022-08-01T01:42:09;97158.46;;;27.89;43.71
43480;BME280;29067;35.492;-97.520;2022-08-01T01:44:37;97152.73;;;28.86;42.64
43480;BME280;29067;35.492;-97.520;2022-08-01T01:47:06;97153.15;;;29.78;42.11
43480;BME280;29067;35.492;-97.520;2022-08-01T01:49:35;97151.20;;;28.93;42.79
43480;BME280;29067;35.492;-97.520;2022-08-01T01:52:05;97154.91;;;28.64;44.07
43480;BME280;29067;35.492;-97.520;2022-08-01T01:54:39;97156.04;;;27.51;44.50
43480;BME280;29067;35.492;-97.520;2022-08-01T01:57:09;97160.28;;;26.97;45.85
43480;BME280;29067;35.492;-97.520;2022-08-01T01:59:40;97157.41;;;27.52;45.02
43480;BME280;29067;35.492;-97.520;2022-08-01T02:02:09;97159.03;;;27.76;45.22
43480;BME280;29067;35.492;-97.520;2022-08-01T02:04:41;97157.25;;;26.46;46.79
43480;BME280;29067;35.492;-97.520;2022-08-01T02:07:11;97157.00;;;27.53;45.64
43480;BME280;29067;35.492;-97.520;2022-08-01T02:09:42;97156.06;;;29.18;43.66
43480;BME280;29067;35.492;-97.520;2022-08-01T02:12:11;97156.77;;;28.15;44.86
43480;BME280;29067;35.492;-97.520;2022-08-01T02:14:41;97160.03;;;27.70;45.25
43480;BME280;29067;35.492;-97.520;2022-08-01T02:17:11;97159.51;;;27.82;44.64
43480;BME280;29067;35.492;-97.520;2022-08-01T02:19:40;97163.96;;;27.85;45.20
43480;BME280;29067;35.492;-97.520;2022-08-01T02:22:11;97164.15;;;28.07;44.89
43480;BME280;29067;35.492;-97.520;2022-08-01T02:24:46;97161.85;;;28.93;43.92
43480;BME280;29067;35.492;-97.520;2022-08-01T02:27:28;97168.44;;;27.60;45.02
43480;BME280;29067;35.492;-97.520;2022-08-01T02:29:59;97159.57;;;29.56;43.00
43480;BME280;29067;35.492;-97.520;2022-08-01T02:32:31;97164.70;;;27.90;44.22
43480;BME280;29067;35.492;-97.520;2022-08-01T02:35:06;97169.09;;;28.10;43.55
43480;BME280;29067;35.492;-97.520;2022-08-01T02:37:37;97169.69;;;28.24;43.93
43480;BME280;29067;35.492;-97.520;2022-08-01T02:40:07;97174.87;;;27.88;44.16
43480;BME280;29067;35.492;-97.520;2022-08-01T02:42:37;97173.11;;;28.84;42.61
43480;BME280;29067;35.492;-97.520;2022-08-01T02:45:07;97170.85;;;28.62;43.08
43480;BME280;29067;35.492;-97.520;2022-08-01T02:47:36;97174.80;;;27.65;43.92
43480;BME280;29067;35.492;-97.520;2022-08-01T02:50:07;97177.86;;;27.15;44.53
43480;BME280;29067;35.492;-97.520;2022-08-01T02:52:36;97180.26;;;27.48;44.38
43480;BME280;29067;35.492;-97.520;2022-08-01T02:55:06;97178.55;;;28.03;44.57
43480;BME280;29067;35.492;-97.520;2022-08-01T02:57:36;97179.81;;;28.48;43.69
43480;BME280;29067;35.492;-97.520;2022-08-01T03:00:06;97181.41;;;28.55;43.69
43480;BME280;29067;35.492;-97.520;2022-08-01T03:02:34;97178.82;;;28.19;43.94
43480;BME280;29067;35.492;-97.520;2022-08-01T03:05:04;97181.92;;;28.74;42.90
43480;BME280;29067;35.492;-97.520;2022-08-01T03:07:33;97182.34;;;29.21;42.61
43480;BME280;29067;35.492;-97.520;2022-08-01T03:10:02;97190.72;;;28.39;43.11
43480;BME280;29067;35.492;-97.520;2022-08-01T03:12:33;97195.73;;;28.29;43.60
43480;BME280;29067;35.492;-97.520;2022-08-01T03:15:04;97196.21;;;28.49;42.88
43480;BME280;29067;35.492;-97.520;2022-08-01T03:17:34;97197.15;;;28.82;42.88
43480;BME280;29067;35.492;-97.520;2022-08-01T03:20:04;97200.26;;;27.79;44.07
43480;BME280;29067;35.492;-97.520;2022-08-01T03:22:34;97199.15;;;28.42;43.04
43480;BME280;29067;35.492;-97.520;2022-08-01T03:25:03;97200.90;;;28.51;42.90
43480;BME280;29067;35.492;-97.520;2022-08-01T03:27:33;97199.81;;;27.25;44.47
43480;BME280;29067;35.492;-97.520;2022-08-01T03:30:05;97205.33;;;28.91;43.10
43480;BME280;29067;35.492;-97.520;2022-08-01T03:32:34;97202.78;;;27.30;44.12
43480;BME280;29067;35.492;-97.520;2022-08-01T03:35:02;97205.40;;;27.78;43.92
43480;BME280;29067;35.492;-97.520;2022-08-01T03:37:35;97205.60;;;27.61;43.42
43480;BME280;29067;35.492;-97.520;2022-08-01T03:40:07;97201.04;;;27.56;43.65
43480;BME280;29067;35.492;-97.520;2022-08-01T03:42:41;97202.49;;;27.17;43.49
43480;BME280;29067;35.492;-97.520;2022-08-01T03:45:26;97198.48;;;28.14;42.67
43480;BME280;29067;35.492;-97.520;2022-08-01T03:47:58;97197.39;;;27.98;43.83
43480;BME280;29067;35.492;-97.520;2022-08-01T03:50:28;97195.49;;;28.08;43.25
43480;BME280;29067;35.492;-97.520;2022-08-01T03:52:57;97197.44;;;27.38;44.45
43480;BME280;29067;35.492;-97.520;2022-08-01T03:55:26;97192.86;;;27.89;43.61
43480;BME280;29067;35.492;-97.520;2022-08-01T03:57:56;97197.72;;;27.15;44.59
43480;BME280;29067;35.492;-97.520;2022-08-01T04:00:24;97197.27;;;26.98;44.07
43480;BME280;29067;35.492;-97.520;2022-08-01T04:02:53;97196.65;;;26.94;43.93
43480;BME280;29067;35.492;-97.520;2022-08-01T04:05:20;97198.44;;;27.16;44.04
43480;BME280;29067;35.492;-97.520;2022-08-01T04:07:50;97203.90;;;26.66;44.98
43480;BME280;29067;35.492;-97.520;2022-08-01T04:10:17;97201.85;;;26.38;45.25
43480;BME280;29067;35.492;-97.520;2022-08-01T04:12:45;97206.22;;;27.14;44.13
43480;BME280;29067;35.492;-97.520;2022-08-01T04:15:13;97208.15;;;26.52;44.90
43480;BME280;29067;35.492;-97.520;2022-08-01T04:17:41;97212.84;;;26.57;44.70
43480;BME280;29067;35.492;-97.520;2022-08-01T04:20:10;97210.43;;;26.50;44.74
43480;BME280;29067;35.492;-97.520;2022-08-01T04:22:39;97210.28;;;26.49;44.61
43480;BME280;29067;35.492;-97.520;2022-08-01T04:25:14;97210.27;;;25.82;45.45
43480;BME280;29067;35.492;-97.520;2022-08-01T04:27:47;97215.02;;;26.84;44.22
43480;BME280;29067;35.492;-97.520;2022-08-01T04:30:17;97207.42;;;27.50;43.67
43480;BME280;29067;35.492;-97.520;2022-08-01T04:32:45;97215.63;;;26.24;44.58
43480;BME280;29067;35.492;-97.520;2022-08-01T04:35:16;97217.12;;;26.66;44.27
43480;BME280;29067;35.492;-97.520;2022-08-01T04:37:48;97214.61;;;25.89;45.04
43480;BME280;29067;35.492;-97.520;2022-08-01T04:40:17;97213.93;;;26.73;44.16
43480;BME280;29067;35.492;-97.520;2022-08-01T04:42:46;97215.27;;;26.41;44.33
43480;BME280;29067;35.492;-97.520;2022-08-01T04:45:13;97213.93;;;26.96;43.73
43480;BME280;29067;35.492;-97.520;2022-08-01T04:47:43;97206.69;;;26.28;44.40
43480;BME280;29067;35.492;-97.520;2022-08-01T04:50:12;97211.97;;;26.21;44.53
43480;BME280;29067;35.492;-97.520;2022-08-01T04:52:40;97208.96;;;25.84;44.95
43480;BME280;29067;35.492;-97.520;2022-08-01T04:55:09;97206.77;;;26.43;44.31
43480;BME280;29067;35.492;-97.520;2022-08-01T04:57:41;97207.31;;;26.42;44.50
43480;BME280;29067;35.492;-97.520;2022-08-01T05:00:10;97203.24;;;26.26;44.84
43480;BME280;29067;35.492;-97.520;2022-08-01T05:02:39;97199.89;;;26.18;45.03
43480;BME280;29067;35.492;-97.520;2022-08-01T05:05:08;97201.36;;;26.03;44.72
43480;BME280;29067;35.492;-97.520;2022-08-01T05:07:36;97206.75;;;25.10;45.79
43480;BME280;29067;35.492;-97.520;2022-08-01T05:10:04;97203.69;;;25.77;44.95
43480;BME280;29067;35.492;-97.520;2022-08-01T05:12:33;97204.89;;;25.52;45.83
43480;BME280;29067;35.492;-97.520;2022-08-01T05:15:01;97199.09;;;26.71;44.34
43480;BME280;29067;35.492;-97.520;2022-08-01T05:17:29;97202.96;;;26.88;43.34
43480;BME280;29067;35.492;-97.520;2022-08-01T05:19:56;97194.02;;;27.53;42.68
43480;BME280;29067;35.492;-97.520;2022-08-01T05:22:24;97203.12;;;26.76;43.64
43480;BME280;29067;35.492;-97.520;2022-08-01T05:24:53;97197.86;;;25.59;45.16
43480;BME280;29067;35.492;-97.520;2022-08-01T05:27:20;97201.15;;;25.64;45.05
43480;BME280;29067;35.492;-97.520;2022-08-01T05:29:48;97205.53;;;26.80;44.70
43480;BME280;29067;35.492;-97.520;2022-08-01T05:32:16;97204.16;;;26.89;44.67
43480;BME280;29067;35.492;-97.520;2022-08-01T05:34:44;97203.31;;;26.73;43.60
43480;BME280;29067;35.492;-97.520;2022-08-01T05:37:12;97202.68;;;25.96;44.32
43480;BME280;29067;35.492;-97.520;2022-08-01T05:39:40;97195.10;;;27.58;42.60
43480;BME280;29067;35.492;-97.520;2022-08-01T05:42:08;97195.44;;;27.44;42.29
43480;BME280;29067;35.492;-97.520;2022-08-01T05:44:35;97200.39;;;26.32;43.77
43480;BME280;29067;35.492;-97.520;2022-08-01T05:47:03;97200.48;;;27.27;43.02
43480;BME280;29067;35.492;-97.520;2022-08-01T05:49:31;97197.40;;;26.65;43.36
43480;BME280;29067;35.492;-97.520;2022-08-01T05:51:59;97192.14;;;26.92;42.58
43480;BME280;29067;35.492;-97.520;2022-08-01T05:54:27;97197.63;;;26.65;43.06
43480;BME280;29067;35.492;-97.520;2022-08-01T05:56:55;97199.44;;;25.70;44.06
43480;BME280;29067;35.492;-97.520;2022-08-01T05:59:22;97191.19;;;27.50;41.65
43480;BME280;29067;35.492;-97.520;2022-08-01T06:01:51;97187.29;;;28.17;40.90
43480;BME280;29067;35.492;-97.520;2022-08-01T06:04:19;97188.65;;;27.57;40.70
43480;BME280;29067;35.492;-97.520;2022-08-01T06:06:47;97187.33;;;28.40;40.43
43480;BME280;29067;35.492;-97.520;2022-08-01T06:09:16;97185.59;;;28.77;39.12
43480;BME280;29067;35.492;-97.520;2022-08-01T06:11:44;97191.44;;;27.71;39.96
43480;BME280;29067;35.492;-97.520;2022-08-01T06:14:13;97184.12;;;28.76;39.18
43480;BME280;29067;35.492;-97.520;2022-08-01T06:16:40;97183.39;;;27.80;40.02
43480;BME280;29067;35.492;-97.520;2022-08-01T06:19:09;97185.03;;;27.83;40.12
43480;BME280;29067;35.492;-97.520;2022-08-01T06:21:36;97186.65;;;27.66;40.74
43480;BME280;29067;35.492;-97.520;2022-08-01T06:24:05;97179.58;;;27.42;41.13
43480;BME280;29067;35.492;-97.520;2022-08-01T06:26:33;97187.13;;;26.65;41.54
43480;BME280;29067;35.492;-97.520;2022-08-01T06:29:01;97188.66;;;28.23;40.51
43480;BME280;29067;35.492;-97.520;2022-08-01T06:31:28;97183.65;;;26.92;41.47
43480;BME280;29067;35.492;-97.520;2022-08-01T06:33:56;97184.18;;;27.75;40.72
43480;BME280;29067;35.492;-97.520;2022-08-01T06:36:23;97187.96;;;26.57;41.84
43480;BME280;29067;35.492;-97.520;2022-08-01T06:38:51;97183.43;;;27.52;41.06
43480;BME280;29067;35.492;-97.520;2022-08-01T06:41:18;97192.22;;;26.37;42.25
43480;BME280;29067;35.492;-97.520;2022-08-01T06:43:46;97182.53;;;28.18;40.19
43480;BME280;29067;35.492;-97.520;2022-08-01T06:46:13;97188.30;;;26.77;41.62
43480;BME280;29067;35.492;-97.520;2022-08-01T06:48:41;97187.79;;;26.22;42.52
43480;BME280;29067;35.492;-97.520;2022-08-01T06:51:09;97185.24;;;26.84;42.14
43480;BME280;29067;35.492;-97.520;2022-08-01T06:53:37;97188.14;;;26.36;42.62
43480;BME280;29067;35.492;-97.520;2022-08-01T06:56:06;97193.53;;;26.26;42.84
43480;BME280;29067;35.492;-97.520;2022-08-01T06:58:34;97192.85;;;26.64;43.56
43480;BME280;29067;35.492;-97.520;2022-08-01T07:01:02;97193.64;;;25.88;43.53
43480;BME280;29067;35.492;-97.520;2022-08-01T07:03:30;97192.48;;;25.97;43.39
43480;BME280;29067;35.492;-97.520;2022-08-01T07:05:57;97190.68;;;25.38;43.80
43480;BME280;29067;35.492;-97.520;2022-08-01T07:08:27;97185.99;;;26.89;42.25
43480;BME280;29067;35.492;-97.520;2022-08-01T07:10:55;97186.74;;;26.27;42.65
43480;BME280;29067;35.492;-97.520;2022-08-01T07:13:23;97182.42;;;26.86;42.74
43480;BME280;29067;35.492;-97.520;2022-08-01T07:15:51;97185.34;;;26.53;42.35
43480;BME280;29067;35.492;-97.520;2022-08-01T07:18:19;97185.71;;;27.01;41.87
43480;BME280;29067;35.492;-97.520;2022-08-01T07:20:47;97189.79;;;26.47;42.47
43480;BME280;29067;35.492;-97.520;2022-08-01T07:23:15;97189.19;;;27.20;41.81
43480;BME280;29067;35.492;-97.520;2022-08-01T07:25:44;97186.24;;;26.65;42.28
43480;BME280;29067;35.492;-97.520;2022-08-01T07:28:11;97179.08;;;27.66;41.19
43480;BME280;29067;35.492;-97.520;2022-08-01T07:30:40;97178.78;;;27.65;40.51
43480;BME280;29067;35.492;-97.520;2022-08-01T07:33:08;97181.95;;;26.58;41.97
43480;BME280;29067;35.492;-97.520;2022-08-01T07:35:36;97177.34;;;27.08;41.27
43480;BME280;29067;35.492;-97.520;2022-08-01T07:38:05;97179.86;;;28.15;40.43
43480;BME280;29067;35.492;-97.520;2022-08-01T07:40:33;97179.71;;;26.94;41.13
43480;BME280;29067;35.492;-97.520;2022-08-01T07:43:01;97176.74;;;27.42;41.19
43480;BME280;29067;35.492;-97.520;2022-08-01T07:45:30;97186.17;;;24.55;44.42
43480;BME280;29067;35.492;-97.520;2022-08-01T07:48:03;97187.06;;;25.80;43.24
43480;BME280;29067;35.492;-97.520;2022-08-01T07:50:30;97186.34;;;26.93;41.63
43480;BME280;29067;35.492;-97.520;2022-08-01T07:52:59;97191.21;;;26.25;42.28
43480;BME280;29067;35.492;-97.520;2022-08-01T07:55:27;97190.42;;;27.86;40.82
43480;BME280;29067;35.492;-97.520;2022-08-01T07:57:55;97188.50;;;28.01;40.41
43480;BME280;29067;35.492;-97.520;2022-08-01T08:00:25;97190.08;;;27.67;40.88
43480;BME280;29067;35.492;-97.520;2022-08-01T08:02:53;97195.79;;;26.59;41.68
43480;BME280;29067;35.492;-97.520;2022-08-01T08:05:21;97195.82;;;26.79;41.34
43480;BME280;29067;35.492;-97.520;2022-08-01T08:07:50;97198.33;;;26.63;41.81
43480;BME280;29067;35.492;-97.520;2022-08-01T08:10:19;97199.97;;;26.12;42.53
43480;BME280;29067;35.492;-97.520;2022-08-01T08:12:47;97200.17;;;26.43;42.27
43480;BME280;29067;35.492;-97.520;2022-08-01T08:15:15;97199.02;;;26.20;42.93
43480;BME280;29067;35.492;-97.520;2022-08-01T08:17:43;97193.69;;;27.56;40.75
43480;BME280;29067;35.492;-97.520;2022-08-01T08:20:11;97194.50;;;26.87;41.37
43480;BME280;29067;35.492;-97.520;2022-08-01T08:22:39;97188.58;;;27.09;41.01
43480;BME280;29067;35.492;-97.520;2022-08-01T08:25:07;97192.73;;;26.50;41.79
43480;BME280;29067;35.492;-97.520;2022-08-01T08:27:36;97191.52;;;26.15;41.97
43480;BME280;29067;35.492;-97.520;2022-08-01T08:30:06;97193.12;;;26.42;41.80
43480;BME280;29067;35.492;-97.520;2022-08-01T08:32:34;97196.45;;;26.77;41.25
43480;BME280;29067;35.492;-97.520;2022-08-01T08:35:03;97194.80;;;26.12;42.11
43480;BME280;29067;35.492;-97.520;2022-08-01T08:37:32;97199.50;;;26.66;41.52
43480;BME280;29067;35.492;-97.520;2022-08-01T08:40:00;97198.84;;;26.75;41.27
43480;BME280;29067;35.492;-97.520;2022-08-01T08:42:27;97197.49;;;27.28;40.74
43480;BME280;29067;35.492;-97.520;2022-08-01T08:44:55;97192.39;;;27.74;40.20
43480;BME280;29067;35.492;-97.520;2022-08-01T08:47:24;97197.37;;;26.34;40.90
43480;BME280;29067;35.492;-97.520;2022-08-01T08:49:54;97193.59;;;26.13;41.80
43480;BME280;29067;35.492;-97.520;2022-08-01T08:52:23;97194.08;;;26.24;41.79
43480;BME280;29067;35.492;-97.520;2022-08-01T08:54:51;97189.70;;;26.49;41.38
43480;BME280;29067;35.492;-97.520;2022-08-01T08:57:20;97193.06;;;26.83;42.05
43480;BME280;29067;35.492;-97.520;2022-08-01T08:59:48;97190.49;;;27.55;40.24
43480;BME280;29067;35.492;-97.520;2022-08-01T09:02:17;97192.69;;;26.32;41.29
43480;BME280;29067;35.492;-97.520;2022-08-01T09:04:47;97186.84;;;27.55;39.64
43480;BME280;29067;35.492;-97.520;2022-08-01T09:07:15;97194.78;;;26.40;41.61
43480;BME280;29067;35.492;-97.520;2022-08-01T09:09:43;97197.56;;;26.39;41.13
43480;BME280;29067;35.492;-97.520;2022-08-01T09:12:16;97196.24;;;26.49;41.46
43480;BME280;29067;35.492;-97.520;2022-08-01T09:14:47;97192.45;;;27.44;40.05
43480;BME280;29067;35.492;-97.520;2022-08-01T09:17:15;97191.18;;;27.16;40.45
43480;BME280;29067;35.492;-97.520;2022-08-01T09:19:44;97197.20;;;26.40;41.24
43480;BME280;29067;35.492;-97.520;2022-08-01T09:22:13;97195.27;;;27.08;40.72
43480;BME280;29067;35.492;-97.520;2022-08-01T09:24:41;97198.73;;;26.89;40.60
43480;BME280;29067;35.492;-97.520;2022-08-01T09:27:19;97199.01;;;26.46;40.97
43480;BME280;29067;35.492;-97.520;2022-08-01T09:29:47;97199.23;;;26.13;41.74
43480;BME280;29067;35.492;-97.520;2022-08-01T09:32:14;97200.98;;;27.08;40.87
43480;BME280;29067;35.492;-97.520;2022-08-01T09:34:42;97200.15;;;25.24;42.28
43480;BME280;29067;35.492;-97.520;2022-08-01T09:37:11;97198.21;;;27.20;41.18
43480;BME280;29067;35.492;-97.520;2022-08-01T09:39:38;97196.43;;;26.38;41.28
43480;BME280;29067;35.492;-97.520;2022-08-01T09:42:21;97198.60;;;26.41;40.87
43480;BME280;29067;35.492;-97.520;2022-08-01T09:44:50;97201.75;;;25.58;41.95
43480;BME280;29067;35.492;-97.520;2022-08-01T09:47:18;97199.71;;;26.91;40.68
43480;BME280;29067;35.492;-97.520;2022-08-01T09:49:54;97197.08;;;27.07;39.90
43480;BME280;29067;35.492;-97.520;2022-08-01T09:52:22;97199.95;;;26.75;40.11
43480;BME280;29067;35.492;-97.520;2022-08-01T09:54:53;97200.55;;;26.79;40.20
43480;BME280;29067;35.492;-97.520;2022-08-01T09:57:22;97193.88;;;26.52;40.16
43480;BME280;29067;35.492;-97.520;2022-08-01T09:59:52;97192.61;;;26.34;40.20
43480;BME280;29067;35.492;-97.520;2022-08-01T10:02:32;97194.38;;;25.61;41.01
43480;BME280;29067;35.492;-97.520;2022-08-01T10:05:02;97193.30;;;25.44;40.95
43480;BME280;29067;35.492;-97.520;2022-08-01T10:07:31;97194.72;;;25.58;41.12
43480;BME280;29067;35.492;-97.520;2022-08-01T10:10:10;97193.99;;;25.77;41.22
43480;BME280;29067;35.492;-97.520;2022-08-01T10:12:40;97189.96;;;25.81;40.67
43480;BME280;29067;35.492;-97.520;2022-08-01T10:15:09;97192.78;;;25.31;41.23
43480;BME280;29067;35.492;-97.520;2022-08-01T10:17:39;97190.85;;;25.64;40.70
43480;BME280;29067;35.492;-97.520;2022-08-01T10:20:10;97190.59;;;27.18;38.96
43480;BME280;29067;35.492;-97.520;2022-08-01T10:22:37;97190.94;;;26.97;39.03
43480;BME280;29067;35.492;-97.520;2022-08-01T10:25:06;97195.95;;;26.78;39.16
43480;BME280;29067;35.492;-97.520;2022-08-01T10:27:36;97198.64;;;26.52;39.53
43480;BME280;29067;35.492;-97.520;2022-08-01T10:30:06;97197.12;;;27.28;39.27
43480;BME280;29067;35.492;-97.520;2022-08-01T10:32:35;97199.67;;;25.79;40.05
43480;BME280;29067;35.492;-97.520;2022-08-01T10:35:05;97205.30;;;26.88;39.76
43480;BME280;29067;35.492;-97.520;2022-08-01T10:37:35;97206.17;;;25.88;40.03
43480;BME280;29067;35.492;-97.520;2022-08-01T10:40:03;97203.02;;;26.54;39.59
43480;BME280;29067;35.492;-97.520;2022-08-01T10:42:32;97202.55;;;26.02;40.08
43480;BME280;29067;35.492;-97.520;2022-08-01T10:45:01;97203.84;;;26.67;39.72
43480;BME280;29067;35.492;-97.520;2022-08-01T10:47:33;97205.40;;;26.93;40.22
43480;BME280;29067;35.492;-97.520;2022-08-01T10:50:13;97204.37;;;25.36;40.07
43480;BME280;29067;35.492;-97.520;2022-08-01T10:53:06;97208.84;;;25.90;40.67
43480;BME280;29067;35.492;-97.520;2022-08-01T10:55:46;97209.93;;;24.85;40.64
43480;BME280;29067;35.492;-97.520;2022-08-01T10:58:20;97214.86;;;26.09;39.61
43480;BME280;29067;35.492;-97.520;2022-08-01T11:03:03;97214.56;;;27.31;37.60
43480;BME280;29067;35.492;-97.520;2022-08-01T11:05:33;97217.39;;;26.43;39.23
43480;BME280;29067;35.492;-97.520;2022-08-01T11:08:05;97217.39;;;26.69;38.70
43480;BME280;29067;35.492;-97.520;2022-08-01T11:10:39;97219.76;;;26.99;38.45
43480;BME280;29067;35.492;-97.520;2022-08-01T11:13:07;97218.66;;;26.44;38.85
43480;BME280;29067;35.492;-97.520;2022-08-01T11:15:35;97218.23;;;26.20;38.95
43480;BME280;29067;35.492;-97.520;2022-08-01T11:18:28;97218.54;;;25.44;40.00
43480;BME280;29067;35.492;-97.520;2022-08-01T11:20:58;97217.41;;;26.10;39.11
43480;BME280;29067;35.492;-97.520;2022-08-01T11:23:28;97222.54;;;27.06;38.22
43480;BME280;29067;35.492;-97.520;2022-08-01T11:26:14;97222.41;;;26.84;38.14
43480;BME280;29067;35.492;-97.520;2022-08-01T11:28:44;97225.99;;;26.14;39.00
43480;BME280;29067;35.492;-97.520;2022-08-01T11:31:30;97227.84;;;26.66;38.38
43480;BME280;29067;35.492;-97.520;2022-08-01T11:34:00;97228.45;;;26.17;38.59
43480;BME280;29067;35.492;-97.520;2022-08-01T11:36:28;97231.97;;;26.52;38.50
43480;BME280;29067;35.492;-97.520;2022-08-01T11:39:14;97236.46;;;25.26;39.44
43480;BME280;29067;35.492;-97.520;2022-08-01T11:41:44;97241.09;;;26.24;38.62
43480;BME280;29067;35.492;-97.520;2022-08-01T11:44:18;97240.07;;;26.41;38.60
43480;BME280;29067;35.492;-97.520;2022-08-01T11:46:54;97236.62;;;27.10;37.99
43480;BME280;29067;35.492;-97.520;2022-08-01T11:49:26;97242.24;;;25.85;39.70
43480;BME280;29067;35.492;-97.520;2022-08-01T11:52:04;97240.96;;;26.05;38.91
43480;BME280;29067;35.492;-97.520;2022-08-01T11:54:34;97241.36;;;26.29;39.53
43480;BME280;29067;35.492;-97.520;2022-08-01T11:57:04;97247.21;;;26.05;39.84
43480;BME280;29067;35.492;-97.520;2022-08-01T11:59:38;97247.48;;;25.07;39.60
43480;BME280;29067;35.492;-97.520;2022-08-01T12:02:17;97245.89;;;25.21;40.57
43480;BME280;29067;35.492;-97.520;2022-08-01T12:04:48;97250.54;;;25.12;40.41
43480;BME280;29067;35.492;-97.520;2022-08-01T12:07:17;97252.22;;;25.48;40.16
43480;BME280;29067;35.492;-97.520;2022-08-01T12:09:45;97255.50;;;25.32;40.32
43480;BME280;29067;35.492;-97.520;2022-08-01T12:12:16;97252.70;;;25.69;39.66
43480;BME280;29067;35.492;-97.520;2022-08-01T12:14:46;97260.48;;;26.36;38.93
43480;BME280;29067;35.492;-97.520;2022-08-01T12:17:21;97261.73;;;27.18;37.78
43480;BME280;29067;35.492;-97.520;2022-08-01T12:19:54;97273.81;;;26.78;38.79
43480;BME280;29067;35.492;-97.520;2022-08-01T12:22:23;97270.21;;;27.69;38.00
43480;BME280;29067;35.492;-97.520;2022-08-01T12:24:51;97269.86;;;27.12;37.78
43480;BME280;29067;35.492;-97.520;2022-08-01T12:27:29;97274.85;;;27.28;37.26
43480;BME280;29067;35.492;-97.520;2022-08-01T12:29:59;97278.82;;;27.17;37.33
43480;BME280;29067;35.492;-97.520;2022-08-01T12:32:28;97282.94;;;27.75;37.15
43480;BME280;29067;35.492;-97.520;2022-08-01T12:35:00;97280.24;;;27.11;36.86
43480;BME280;29067;35.492;-97.520;2022-08-01T12:37:28;97283.56;;;26.74;37.57
43480;BME280;29067;35.492;-97.520;2022-08-01T12:39:56;97280.84;;;26.57;37.43
43480;BME280;29067;35.492;-97.520;2022-08-01T12:42:25;97276.08;;;26.82;37.39
43480;BME280;29067;35.492;-97.520;2022-08-01T12:44:54;97279.12;;;27.84;36.88
43480;BME280;29067;35.492;-97.520;2022-08-01T12:47:23;97281.08;;;25.06;38.55
43480;BME280;29067;35.492;-97.520;2022-08-01T12:49:51;97283.34;;;26.56;38.14
43480;BME280;29067;35.492;-97.520;2022-08-01T12:52:20;97283.12;;;25.73;38.31
43480;BME280;29067;35.492;-97.520;2022-08-01T12:55:07;97291.92;;;26.00;37.89
43480;BME280;29067;35.492;-97.520;2022-08-01T12:57:38;97292.22;;;26.57;37.75
43480;BME280;29067;35.492;-97.520;2022-08-01T13:00:10;97295.24;;;25.95;38.02